createdAt,value
2019-03-30T00:00:58.392Z,13.43
2019-03-30T00:03:28.442Z,11.60
2019-03-30T00:05:58.458Z,12.20
2019-03-30T00:08:28.523Z,12.10
2019-03-30T00:10:58.556Z,13.17
2019-03-30T00:13:28.525Z,13.67
2019-03-30T00:15:58.444Z,15.23
2019-03-30T00:18:28.486Z,14.27
2019-03-30T00:20:58.580Z,14.80
2019-03-30T00:23:28.625Z,12.93
2019-03-30T00:25:58.679Z,15.67
2019-03-30T00:28:28.689Z,13.10
2019-03-30T00:30:58.867Z,13.40
2019-03-30T00:33:28.879Z,14.03
2019-03-30T00:35:58.911Z,12.40
2019-03-30T00:38:28.887Z,13.50
2019-03-30T00:40:58.997Z,12.10
2019-03-30T00:43:28.998Z,12.70
2019-03-30T00:45:59.053Z,13.70
2019-03-30T00:48:29.014Z,8.70
2019-03-30T00:50:59.112Z,7.50
2019-03-30T00:53:29.076Z,8.03
2019-03-30T00:55:59.113Z,7.30
2019-03-30T00:58:29.181Z,6.90
2019-03-30T01:00:59.290Z,7.60
2019-03-30T01:03:29.911Z,9.07
2019-03-30T01:05:59.910Z,6.13
2019-03-30T01:08:29.911Z,7.97
2019-03-30T01:11:00.085Z,7.20
2019-03-30T01:13:30.209Z,7.40
2019-03-30T01:16:00.169Z,7.70
2019-03-30T01:18:30.206Z,7.57
2019-03-30T01:21:00.219Z,7.00
2019-03-30T01:23:30.202Z,7.43
2019-03-30T01:26:00.267Z,7.87
2019-03-30T01:28:30.183Z,7.17
2019-03-30T01:31:00.594Z,7.67
2019-03-30T01:33:30.815Z,7.47
2019-03-30T01:36:00.801Z,7.10
2019-03-30T01:38:30.798Z,8.47
2019-03-30T01:41:00.778Z,7.50
2019-03-30T01:43:30.817Z,7.20
2019-03-30T01:46:00.837Z,7.27
2019-03-30T01:48:30.908Z,8.00
2019-03-30T01:51:00.898Z,7.57
2019-03-30T01:53:30.885Z,6.73
2019-03-30T01:56:00.847Z,8.40
2019-03-30T01:58:30.875Z,8.20
2019-03-30T02:01:01.034Z,6.90
2019-03-30T02:03:30.962Z,7.40
2019-03-30T02:06:00.958Z,7.90
2019-03-30T02:08:30.946Z,7.97
2019-03-30T02:11:00.941Z,7.40
2019-03-30T02:13:30.948Z,7.53
2019-03-30T02:16:00.998Z,7.83
2019-03-30T02:18:31.309Z,7.93
2019-03-30T02:21:01.294Z,6.67
2019-03-30T02:23:32.508Z,7.47
2019-03-30T02:26:02.563Z,9.57
2019-03-30T02:28:32.576Z,7.23
2019-03-30T02:31:02.959Z,6.93
2019-03-30T02:33:33.011Z,7.00
2019-03-30T02:36:03.395Z,7.37
2019-03-30T02:38:33.419Z,7.50
2019-03-30T02:41:03.485Z,9.00
2019-03-30T02:43:33.542Z,8.30
2019-03-30T02:46:03.603Z,8.07
2019-03-30T02:48:33.580Z,8.83
2019-03-30T02:51:03.564Z,7.63
2019-03-30T02:53:33.602Z,6.83
2019-03-30T02:56:03.855Z,7.83
2019-03-30T02:58:33.952Z,7.70
2019-03-30T03:01:04.281Z,7.53
2019-03-30T03:03:34.344Z,7.40
2019-03-30T03:06:04.417Z,7.93
2019-03-30T03:08:34.384Z,7.77
2019-03-30T03:11:04.439Z,7.20
2019-03-30T03:13:34.390Z,7.20
2019-03-30T03:16:04.355Z,7.93
2019-03-30T03:18:34.635Z,7.30
2019-03-30T03:21:07.985Z,7.33
2019-03-30T03:23:36.244Z,6.77
2019-03-30T03:26:06.164Z,7.10
2019-03-30T03:28:36.186Z,7.17
2019-03-30T03:31:06.210Z,7.53
2019-03-30T03:33:36.198Z,8.10
2019-03-30T03:36:06.198Z,8.03
2019-03-30T03:38:36.150Z,7.07
2019-03-30T03:41:06.250Z,7.63
2019-03-30T03:43:36.352Z,8.07
2019-03-30T03:46:06.342Z,8.27
2019-03-30T03:48:36.311Z,7.63
2019-03-30T03:51:24.499Z,8.20
2019-03-30T03:53:38.992Z,7.10
2019-03-30T03:56:10.254Z,9.70
2019-03-30T03:58:43.447Z,6.70
2019-03-30T04:01:15.586Z,7.17
2019-03-30T04:03:47.121Z,10.53
2019-03-30T04:06:19.057Z,7.73
2019-03-30T04:08:51.025Z,6.90
2019-03-30T04:11:23.281Z,7.57
2019-03-30T04:13:54.861Z,7.73
2019-03-30T04:16:24.967Z,7.03
2019-03-30T04:18:54.922Z,7.27
2019-03-30T04:21:42.385Z,7.80
2019-03-30T04:23:56.583Z,7.83
2019-03-30T04:26:26.580Z,8.10
2019-03-30T04:28:56.482Z,8.43
2019-03-30T04:31:26.479Z,8.80
2019-03-30T04:33:56.533Z,7.90
2019-03-30T04:36:26.490Z,7.37
2019-03-30T04:38:56.461Z,7.37
2019-03-30T04:41:26.456Z,7.30
2019-03-30T04:43:56.403Z,7.80
2019-03-30T04:46:26.404Z,7.93
2019-03-30T04:48:56.410Z,7.93
2019-03-30T04:51:26.440Z,7.67
2019-03-30T04:53:56.384Z,6.87
2019-03-30T04:56:26.337Z,8.10
2019-03-30T04:58:56.425Z,7.50
2019-03-30T05:01:26.411Z,7.37
2019-03-30T05:03:56.390Z,8.50
2019-03-30T05:06:26.463Z,9.00
2019-03-30T05:08:56.442Z,8.20
2019-03-30T05:11:26.454Z,9.67
2019-03-30T05:13:56.537Z,8.27
2019-03-30T05:16:26.521Z,8.30
2019-03-30T05:18:56.485Z,7.77
2019-03-30T05:21:26.551Z,8.47
2019-03-30T05:23:56.767Z,8.47
2019-03-30T05:26:26.922Z,8.77
2019-03-30T05:28:57.010Z,8.80
2019-03-30T05:31:27.088Z,7.10
2019-03-30T05:33:57.085Z,9.47
2019-03-30T05:36:27.062Z,8.27
2019-03-30T05:38:57.214Z,7.50
2019-03-30T05:41:27.502Z,7.70
2019-03-30T05:43:57.517Z,7.10
2019-03-30T05:46:27.513Z,7.37
2019-03-30T05:48:57.605Z,8.33
2019-03-30T05:51:27.669Z,8.17
2019-03-30T05:53:58.058Z,7.97
2019-03-30T05:56:28.063Z,6.10
2019-03-30T05:58:58.174Z,8.70
2019-03-30T06:01:28.378Z,7.20
2019-03-30T06:03:58.366Z,7.80
2019-03-30T06:06:28.415Z,7.70
2019-03-30T06:08:58.411Z,8.07
2019-03-30T06:11:28.491Z,6.60
2019-03-30T06:13:58.445Z,8.17
2019-03-30T06:16:28.455Z,8.50
2019-03-30T06:18:58.441Z,8.37
2019-03-30T06:21:28.383Z,7.83
2019-03-30T06:23:58.451Z,7.00
2019-03-30T06:26:28.752Z,8.50
2019-03-30T06:28:58.827Z,7.77
2019-03-30T06:31:28.839Z,8.70
2019-03-30T06:33:58.738Z,7.83
2019-03-30T06:36:28.785Z,8.37
2019-03-30T06:38:59.404Z,8.20
2019-03-30T06:41:29.504Z,8.27
2019-03-30T06:43:59.483Z,8.47
2019-03-30T06:46:29.562Z,9.63
2019-03-30T06:49:00.352Z,8.80
2019-03-30T06:51:30.358Z,7.57
2019-03-30T06:54:00.399Z,10.30
2019-03-30T06:56:30.375Z,7.53
2019-03-30T06:59:00.313Z,8.93
2019-03-30T07:01:31.121Z,8.20
2019-03-30T07:04:01.130Z,7.60
2019-03-30T07:06:31.501Z,7.83
2019-03-30T07:09:03.968Z,7.60
2019-03-30T07:11:37.718Z,8.10
2019-03-30T07:14:07.784Z,7.47
2019-03-30T07:16:39.154Z,8.20
2019-03-30T07:19:09.318Z,8.80
2019-03-30T07:21:39.313Z,9.33
2019-03-30T07:24:09.749Z,8.30
2019-03-30T07:26:39.799Z,7.70
2019-03-30T07:29:09.847Z,8.37
2019-03-30T07:31:39.953Z,8.40
2019-03-30T07:34:10.023Z,7.97
2019-03-30T07:36:40.078Z,7.93
2019-03-30T07:39:10.138Z,10.13
2019-03-30T07:41:40.118Z,8.43
2019-03-30T07:44:10.445Z,8.90
2019-03-30T07:46:40.546Z,8.77
2019-03-30T07:49:10.478Z,8.00
2019-03-30T07:51:40.561Z,9.63
2019-03-30T07:54:10.562Z,10.13
2019-03-30T07:56:40.536Z,8.70
2019-03-30T07:59:10.579Z,7.03
2019-03-30T08:01:40.585Z,10.00
2019-03-30T08:04:10.705Z,9.17
2019-03-30T08:06:40.779Z,8.60
2019-03-30T08:09:10.998Z,9.00
2019-03-30T08:11:41.144Z,8.47
2019-03-30T08:14:11.175Z,8.53
2019-03-30T08:16:41.268Z,8.80
2019-03-30T08:19:11.332Z,11.60
2019-03-30T08:21:41.631Z,8.60
2019-03-30T08:24:11.727Z,8.37
2019-03-30T08:26:41.867Z,10.30
2019-03-30T08:29:12.843Z,7.83
2019-03-30T08:31:42.976Z,9.00
2019-03-30T08:34:13.599Z,9.37
2019-03-30T08:36:44.168Z,10.20
2019-03-30T08:39:14.215Z,8.00
2019-03-30T08:41:44.608Z,8.67
2019-03-30T08:44:14.688Z,10.43
2019-03-30T08:46:44.779Z,9.67
2019-03-30T08:49:14.840Z,11.63
2019-03-30T08:51:44.787Z,8.93
2019-03-30T08:54:14.835Z,8.70
2019-03-30T08:56:45.162Z,9.20
2019-03-30T08:59:15.202Z,9.10
2019-03-30T09:01:45.333Z,8.40
2019-03-30T09:04:15.444Z,8.50
2019-03-30T09:06:46.018Z,8.23
2019-03-30T09:09:16.105Z,8.23
2019-03-30T09:11:46.180Z,9.03
2019-03-30T09:14:16.316Z,9.87
2019-03-30T09:16:46.513Z,7.53
2019-03-30T09:19:16.830Z,9.07
2019-03-30T09:21:46.922Z,7.30
2019-03-30T09:24:17.061Z,7.40
2019-03-30T09:26:47.067Z,6.73
2019-03-30T09:29:17.065Z,7.97
2019-03-30T09:31:47.237Z,7.40
2019-03-30T09:34:17.372Z,7.27
2019-03-30T09:36:47.443Z,7.30
2019-03-30T09:39:17.418Z,7.67
2019-03-30T09:41:47.393Z,7.60
2019-03-30T09:44:17.474Z,6.57
2019-03-30T09:46:47.537Z,7.10
2019-03-30T09:49:17.614Z,7.37
2019-03-30T09:51:47.785Z,6.80
2019-03-30T09:54:23.498Z,6.03
2019-03-30T09:56:49.552Z,7.30
2019-03-30T09:59:19.954Z,7.63
2019-03-30T10:01:50.415Z,6.37
2019-03-30T10:04:20.418Z,7.27
2019-03-30T10:06:50.460Z,6.77
2019-03-30T10:09:20.462Z,6.60
2019-03-30T10:11:50.501Z,7.53
2019-03-30T10:14:20.585Z,7.67
2019-03-30T10:16:50.659Z,7.97
2019-03-30T10:19:20.735Z,8.00
2019-03-30T10:21:50.799Z,7.90
2019-03-30T10:24:20.898Z,8.00
2019-03-30T10:26:50.997Z,7.90
2019-03-30T10:29:21.094Z,7.00
2019-03-30T10:31:51.459Z,6.83
2019-03-30T10:34:21.406Z,8.17
2019-03-30T10:36:51.416Z,7.77
2019-03-30T10:39:21.673Z,7.30
2019-03-30T10:41:51.794Z,7.27
2019-03-30T10:44:21.879Z,9.07
2019-03-30T10:46:52.022Z,7.63
2019-03-30T10:49:22.078Z,8.80
2019-03-30T10:51:54.349Z,7.57
2019-03-30T10:54:23.938Z,7.97
2019-03-30T10:56:54.007Z,7.50
2019-03-30T10:59:24.123Z,7.50
2019-03-30T11:01:54.121Z,6.53
2019-03-30T11:04:24.254Z,6.70
2019-03-30T11:06:54.346Z,6.20
2019-03-30T11:09:25.660Z,6.80
2019-03-30T11:11:55.773Z,7.10
2019-03-30T11:14:26.254Z,7.10
2019-03-30T11:16:56.331Z,6.50
2019-03-30T11:19:26.447Z,7.77
2019-03-30T11:21:56.533Z,7.27
2019-03-30T11:24:27.078Z,7.23
2019-03-30T11:26:57.232Z,6.57
2019-03-30T11:29:27.282Z,8.20
2019-03-30T11:31:57.456Z,7.37
2019-03-30T11:34:27.467Z,38.40
2019-03-30T11:36:57.609Z,18.87
2019-03-30T11:39:27.904Z,11.60
2019-03-30T11:41:58.166Z,12.47
2019-03-30T11:44:28.442Z,8.73
2019-03-30T11:46:58.443Z,7.30
2019-03-30T11:49:28.546Z,13.03
2019-03-30T11:51:58.554Z,6.40
2019-03-30T11:54:28.592Z,50.83
2019-03-30T11:56:58.629Z,54.57
2019-03-30T11:59:28.749Z,7.20
2019-03-30T12:01:58.781Z,7.30
2019-03-30T12:04:28.859Z,5.57
2019-03-30T12:06:58.835Z,7.03
2019-03-30T12:09:28.918Z,6.13
2019-03-30T12:11:58.971Z,6.63
2019-03-30T12:14:29.102Z,6.60
2019-03-30T12:16:59.184Z,5.60
2019-03-30T12:19:29.300Z,6.00
2019-03-30T12:21:59.397Z,5.67
2019-03-30T12:24:29.513Z,5.93
2019-03-30T12:26:59.589Z,6.17
2019-03-30T12:29:30.071Z,9.43
2019-03-30T12:32:00.117Z,28.83
2019-03-30T12:34:30.182Z,6.60
2019-03-30T12:37:01.104Z,6.60
2019-03-30T12:39:31.181Z,5.77
2019-03-30T12:42:01.213Z,17.20
2019-03-30T12:44:31.377Z,7.60
2019-03-30T12:47:01.539Z,7.13
2019-03-30T12:49:31.650Z,6.80
2019-03-30T12:52:01.612Z,6.70
2019-03-30T12:54:31.604Z,6.93
2019-03-30T12:57:01.589Z,7.27
2019-03-30T12:59:33.291Z,7.30
2019-03-30T13:02:03.328Z,7.47
2019-03-30T13:04:33.399Z,7.20
2019-03-30T13:07:03.884Z,7.80
2019-03-30T13:09:34.899Z,7.20
2019-03-30T13:12:05.334Z,6.87
2019-03-30T13:14:36.409Z,7.97
2019-03-30T13:17:06.885Z,7.73
2019-03-30T13:19:40.548Z,6.80
2019-03-30T13:22:10.789Z,7.80
2019-03-30T13:24:41.201Z,7.30
2019-03-30T13:27:12.962Z,8.20
2019-03-30T13:29:44.053Z,7.10
2019-03-30T13:32:14.146Z,7.60
2019-03-30T13:34:44.647Z,7.00
2019-03-30T13:37:18.910Z,15.70
2019-03-30T13:39:49.015Z,9.93
2019-03-30T13:42:19.057Z,6.87
2019-03-30T13:44:49.226Z,6.30
2019-03-30T13:47:19.711Z,7.20
2019-03-30T13:49:50.185Z,6.80
2019-03-30T13:52:20.287Z,7.40
2019-03-30T13:54:50.428Z,7.10
2019-03-30T13:57:20.783Z,8.27
2019-03-30T13:59:50.877Z,8.00
2019-03-30T14:02:21.058Z,7.50
2019-03-30T14:04:52.499Z,7.00
2019-03-30T14:07:22.868Z,7.20
2019-03-30T14:09:53.011Z,6.13
2019-03-30T14:12:23.242Z,6.00
2019-03-30T14:14:53.369Z,5.03
2019-03-30T14:17:23.572Z,5.60
2019-03-30T14:19:53.698Z,6.70
2019-03-30T14:22:23.854Z,6.50
2019-03-30T14:24:54.983Z,6.27
2019-03-30T14:27:25.034Z,6.40
2019-03-30T14:29:55.247Z,5.47
2019-03-30T14:32:25.289Z,6.23
2019-03-30T14:34:55.303Z,6.43
2019-03-30T14:37:25.407Z,7.30
2019-03-30T14:39:55.547Z,6.17
2019-03-30T14:42:25.626Z,6.83
2019-03-30T14:44:55.748Z,7.27
2019-03-30T14:47:25.894Z,9.83
2019-03-30T14:49:56.067Z,12.50
2019-03-30T14:52:26.088Z,7.93
2019-03-30T14:54:56.180Z,6.90
2019-03-30T14:57:26.201Z,5.80
2019-03-30T14:59:56.322Z,7.03
2019-03-30T15:02:26.614Z,8.70
2019-03-30T15:04:56.770Z,7.37
2019-03-30T15:07:27.039Z,7.07
2019-03-30T15:09:57.302Z,7.33
2019-03-30T15:12:27.312Z,7.00
2019-03-30T15:14:57.513Z,7.10
2019-03-30T15:17:27.538Z,7.33
2019-03-30T15:19:57.576Z,6.00
2019-03-30T15:22:28.827Z,7.40
2019-03-30T15:25:01.201Z,7.30
2019-03-30T15:27:31.296Z,6.83
2019-03-30T15:30:01.672Z,6.60
2019-03-30T15:32:31.740Z,6.83
2019-03-30T15:35:02.909Z,6.67
2019-03-30T15:37:32.954Z,7.40
2019-03-30T15:40:03.031Z,7.37
2019-03-30T15:42:33.145Z,7.10
2019-03-30T15:45:03.317Z,7.17
2019-03-30T15:47:33.441Z,7.77
2019-03-30T15:50:03.556Z,6.57
2019-03-30T15:52:33.996Z,6.93
2019-03-30T15:55:04.614Z,6.50
2019-03-30T15:57:34.733Z,6.87
2019-03-30T16:00:07.110Z,6.93
2019-03-30T16:02:37.430Z,7.30
2019-03-30T16:05:08.309Z,6.97
2019-03-30T16:07:38.583Z,7.57
2019-03-30T16:10:09.486Z,7.90
2019-03-30T16:12:40.405Z,6.90
2019-03-30T16:15:11.552Z,6.93
2019-03-30T16:17:41.670Z,7.47
2019-03-30T16:20:11.729Z,7.80
2019-03-30T16:22:41.919Z,8.30
2019-03-30T16:25:12.630Z,6.77
2019-03-30T16:27:43.071Z,7.07
2019-03-30T16:30:13.211Z,6.43
2019-03-30T16:32:43.351Z,6.90
2019-03-30T16:35:13.674Z,7.33
2019-03-30T16:37:43.750Z,7.83
2019-03-30T16:40:14.702Z,8.60
2019-03-30T16:42:44.721Z,8.13
2019-03-30T16:45:15.282Z,8.70
2019-03-30T16:47:45.319Z,8.97
2019-03-30T16:50:16.365Z,9.03
2019-03-30T16:52:46.507Z,7.97
2019-03-30T16:55:16.924Z,8.57
2019-03-30T16:57:46.994Z,8.60
2019-03-30T17:00:17.733Z,9.00
2019-03-30T17:02:47.810Z,8.30
2019-03-30T17:05:17.854Z,9.40
2019-03-30T17:07:47.868Z,9.50
2019-03-30T17:10:17.995Z,9.00
2019-03-30T17:12:48.136Z,9.00
2019-03-30T17:15:18.197Z,9.60
2019-03-30T17:17:48.280Z,9.33
2019-03-30T17:20:18.759Z,9.03
2019-03-30T17:22:48.841Z,8.80
2019-03-30T17:25:18.881Z,8.07
2019-03-30T17:27:58.179Z,8.47
2019-03-30T17:30:20.714Z,9.37
2019-03-30T17:32:50.937Z,8.40
2019-03-30T17:35:21.082Z,8.57
2019-03-30T17:37:51.138Z,9.73
2019-03-30T17:40:21.291Z,8.43
2019-03-30T17:42:51.375Z,8.73
2019-03-30T17:45:21.473Z,8.70
2019-03-30T17:47:51.688Z,8.40
2019-03-30T17:50:22.141Z,9.57
2019-03-30T17:52:52.354Z,11.47
2019-03-30T17:55:33.115Z,10.10
2019-03-30T17:57:54.358Z,9.57
2019-03-30T18:00:24.609Z,9.03
2019-03-30T18:02:55.225Z,9.37
2019-03-30T18:05:25.587Z,9.50
2019-03-30T18:07:56.830Z,10.50
2019-03-30T18:10:27.676Z,10.33
2019-03-30T18:12:57.811Z,10.33
2019-03-30T18:15:27.869Z,10.13
2019-03-30T18:17:58.014Z,9.50
2019-03-30T18:20:28.438Z,8.87
2019-03-30T18:23:01.347Z,8.97
2019-03-30T18:25:31.716Z,8.97
2019-03-30T18:28:01.794Z,8.37
2019-03-30T18:30:37.293Z,9.17
2019-03-30T18:33:08.841Z,11.80
2019-03-30T18:35:42.726Z,7.93
2019-03-30T18:38:13.355Z,9.50
2019-03-30T18:40:43.726Z,9.33
2019-03-30T18:43:13.984Z,9.67
2019-03-30T18:45:44.000Z,10.53
2019-03-30T18:48:23.321Z,10.07
2019-03-30T18:50:53.378Z,10.30
2019-03-30T18:53:23.414Z,9.77
2019-03-30T18:55:53.406Z,10.50
2019-03-30T18:58:23.662Z,9.73
2019-03-30T19:00:54.758Z,10.47
2019-03-30T19:03:24.998Z,9.83
2019-03-30T19:05:55.212Z,9.70
2019-03-30T19:08:26.253Z,9.10
2019-03-30T19:10:56.354Z,9.97
2019-03-30T19:13:26.538Z,11.07
2019-03-30T19:15:56.702Z,10.00
2019-03-30T19:18:26.863Z,9.97
2019-03-30T19:20:56.970Z,8.37
2019-03-30T19:23:27.100Z,8.80
2019-03-30T19:25:57.337Z,9.10
2019-03-30T19:28:27.449Z,8.93
2019-03-30T19:30:57.763Z,8.53
2019-03-30T19:33:28.290Z,10.10
2019-03-30T19:35:58.434Z,10.30
2019-03-30T19:38:28.592Z,9.53
2019-03-30T19:40:58.849Z,12.00
2019-03-30T19:43:29.038Z,17.67
2019-03-30T19:45:59.199Z,13.20
2019-03-30T19:48:29.825Z,14.30
2019-03-30T19:51:00.981Z,11.27
2019-03-30T19:53:31.184Z,15.67
2019-03-30T19:56:01.640Z,12.77
2019-03-30T19:58:31.971Z,15.93
2019-03-30T20:01:02.380Z,15.10
2019-03-30T20:03:32.717Z,10.83
2019-03-30T20:06:03.954Z,10.90
2019-03-30T20:08:34.129Z,11.37
2019-03-30T20:11:04.574Z,10.37
2019-03-30T20:13:35.796Z,9.53
2019-03-30T20:16:06.437Z,10.60
2019-03-30T20:18:36.582Z,10.27
2019-03-30T20:21:07.578Z,10.60
2019-03-30T20:23:38.298Z,11.10
2019-03-30T20:26:08.617Z,10.63
2019-03-30T20:28:38.913Z,10.47
2019-03-30T20:31:09.037Z,13.03
2019-03-30T20:33:39.239Z,13.30
2019-03-30T20:36:09.336Z,10.90
2019-03-30T20:38:39.765Z,12.47
2019-03-30T20:41:10.096Z,9.70
2019-03-30T20:43:40.539Z,11.87
2019-03-30T20:46:11.403Z,11.93
2019-03-30T20:48:41.560Z,9.60
2019-03-30T20:51:12.298Z,10.80
2019-03-30T20:53:42.427Z,11.10
2019-03-30T20:56:12.607Z,10.80
2019-03-30T20:58:42.835Z,11.80
2019-03-30T21:01:13.001Z,10.93
2019-03-30T21:03:43.365Z,11.73
2019-03-30T21:06:13.493Z,11.77
2019-03-30T21:08:43.856Z,21.50
2019-03-30T21:11:14.149Z,19.40
2019-03-30T21:13:44.382Z,17.13
2019-03-30T21:16:14.518Z,13.67
2019-03-30T21:18:44.777Z,14.30
2019-03-30T21:21:14.981Z,15.57
2019-03-30T21:23:45.121Z,15.07
2019-03-30T21:26:15.775Z,14.53
2019-03-30T21:28:46.855Z,11.77
2019-03-30T21:31:17.321Z,13.10
2019-03-30T21:33:47.463Z,13.17
2019-03-30T21:36:17.794Z,13.07
2019-03-30T21:38:47.912Z,12.50
2019-03-30T21:41:17.970Z,12.43
2019-03-30T21:43:48.454Z,13.43
2019-03-30T21:46:18.501Z,12.80
2019-03-30T21:48:48.577Z,12.70
2019-03-30T21:51:18.680Z,13.07
2019-03-30T21:53:48.785Z,12.93
2019-03-30T21:56:18.790Z,13.37
2019-03-30T21:58:48.935Z,14.30
2019-03-30T22:01:19.018Z,13.47
2019-03-30T22:03:49.124Z,13.60
2019-03-30T22:06:19.184Z,14.63
2019-03-30T22:08:50.518Z,13.67
2019-03-30T22:11:22.677Z,14.07
2019-03-30T22:13:52.889Z,15.63
2019-03-30T22:16:22.918Z,15.30
2019-03-30T22:18:53.067Z,14.07
2019-03-30T22:21:23.207Z,14.20
2019-03-30T22:23:53.919Z,13.97
2019-03-30T22:26:24.951Z,13.00
2019-03-30T22:28:55.042Z,14.00
2019-03-30T22:31:25.139Z,15.53
2019-03-30T22:33:55.183Z,15.13
2019-03-30T22:36:25.376Z,16.33
2019-03-30T22:38:55.507Z,15.03
2019-03-30T22:41:25.874Z,15.13
2019-03-30T22:43:55.999Z,14.90
2019-03-30T22:46:26.084Z,15.57
2019-03-30T22:48:56.262Z,15.30
2019-03-30T22:51:26.435Z,17.30
2019-03-30T22:53:56.464Z,17.93
2019-03-30T22:56:26.436Z,17.27
2019-03-30T22:58:56.532Z,18.60
2019-03-30T23:01:26.877Z,19.20
2019-03-30T23:03:56.854Z,19.87
2019-03-30T23:06:26.950Z,16.80
2019-03-30T23:08:57.420Z,18.80
2019-03-30T23:11:27.463Z,18.30
2019-03-30T23:13:57.515Z,18.30
2019-03-30T23:16:27.607Z,18.37
2019-03-30T23:18:57.701Z,20.60
2019-03-30T23:21:28.038Z,19.63
2019-03-30T23:23:58.050Z,18.47
2019-03-30T23:26:28.169Z,19.70
2019-03-30T23:28:59.614Z,19.17
2019-03-30T23:31:30.011Z,20.47
2019-03-30T23:34:00.311Z,20.13
2019-03-30T23:36:30.342Z,18.90
2019-03-30T23:39:00.346Z,17.37
2019-03-30T23:41:30.417Z,16.23
2019-03-30T23:44:00.322Z,16.70
2019-03-30T23:46:30.425Z,16.03
2019-03-30T23:49:00.851Z,14.77
2019-03-30T23:51:30.897Z,18.07
2019-03-30T23:54:00.890Z,15.40
2019-03-30T23:56:32.603Z,16.80
2019-03-30T23:59:02.618Z,15.10
